createdAt,value
2023-01-01T00:01:56.953Z,7.30
2023-01-01T00:04:27.091Z,7.27
2023-01-01T00:06:55.038Z,6.90
2023-01-01T00:09:40.704Z,7.33
2023-01-01T00:12:08.730Z,7.77
2023-01-01T00:14:36.718Z,7.57
2023-01-01T00:17:04.619Z,7.80
2023-01-01T00:19:33.920Z,8.53
2023-01-01T00:22:09.946Z,7.80
2023-01-01T00:24:48.832Z,7.60
2023-01-01T00:27:16.717Z,7.67
2023-01-01T00:29:44.624Z,7.83
2023-01-01T00:32:15.436Z,7.10
2023-01-01T00:34:48.447Z,6.87
2023-01-01T00:37:18.235Z,6.87
2023-01-01T00:39:46.205Z,7.27
2023-01-01T00:42:14.128Z,6.20
2023-01-01T00:44:42.043Z,5.93
2023-01-01T00:47:09.940Z,6.40
2023-01-01T00:49:37.895Z,5.53
2023-01-01T00:52:07.290Z,5.33
2023-01-01T00:54:35.236Z,4.77
2023-01-01T00:57:03.157Z,5.20
2023-01-01T00:59:31.097Z,4.60
2023-01-01T01:01:59.200Z,4.90
2023-01-01T01:04:27.227Z,5.07
2023-01-01T01:06:55.163Z,4.47
2023-01-01T01:09:24.594Z,4.70
2023-01-01T01:11:52.570Z,4.97
2023-01-01T01:14:40.616Z,4.67
2023-01-01T01:17:08.639Z,4.57
2023-01-01T01:19:36.644Z,5.03
2023-01-01T01:22:04.529Z,4.40
2023-01-01T01:24:33.804Z,5.30
2023-01-01T01:27:01.759Z,4.63
2023-01-01T01:29:29.652Z,4.67
2023-01-01T01:31:57.572Z,5.00
2023-01-01T01:34:28.035Z,5.10
2023-01-01T01:36:56.281Z,4.90
2023-01-01T01:39:24.264Z,4.40
2023-01-01T01:41:53.556Z,4.57
2023-01-01T01:44:56.651Z,4.30
2023-01-01T01:47:29.320Z,4.67
2023-01-01T01:50:03.682Z,4.47
2023-01-01T01:52:35.475Z,4.10
2023-01-01T01:55:05.251Z,4.90
2023-01-01T01:57:35.329Z,4.77
2023-01-01T02:00:10.727Z,4.53
2023-01-01T02:02:46.247Z,4.40
2023-01-01T02:05:14.465Z,4.07
2023-01-01T02:07:42.934Z,4.90
2023-01-01T02:10:11.132Z,4.43
2023-01-01T02:12:40.772Z,4.77
2023-01-01T02:15:10.677Z,4.50
2023-01-01T02:17:45.249Z,4.27
2023-01-01T02:20:26.579Z,4.80
2023-01-01T02:23:21.565Z,4.37
2023-01-01T02:26:02.197Z,4.53
2023-01-01T02:28:50.550Z,4.67
2023-01-01T02:31:25.163Z,4.30
2023-01-01T02:33:56.309Z,4.60
2023-01-01T02:36:27.158Z,4.90
2023-01-01T02:38:58.575Z,4.47
2023-01-01T02:41:29.476Z,4.30
2023-01-01T02:46:32.355Z,4.63
2023-01-01T02:49:06.197Z,4.73
2023-01-01T02:51:53.118Z,4.67
2023-01-01T02:54:31.846Z,4.60
2023-01-01T02:57:06.742Z,4.67
2023-01-01T03:00:06.203Z,4.50
2023-01-01T03:02:48.646Z,4.63
2023-01-01T03:05:26.616Z,4.70
2023-01-01T03:08:05.841Z,3.93
2023-01-01T03:10:42.182Z,4.13
2023-01-01T03:13:16.663Z,4.13
2023-01-01T03:15:52.755Z,4.37
2023-01-01T03:18:25.741Z,4.10
2023-01-01T03:20:57.950Z,4.30
2023-01-01T03:23:30.659Z,3.87
2023-01-01T03:26:02.615Z,3.90
2023-01-01T03:28:35.875Z,4.00
2023-01-01T03:31:06.311Z,3.93
2023-01-01T03:33:39.142Z,3.93
2023-01-01T03:36:10.735Z,4.33
2023-01-01T03:38:44.644Z,3.80
2023-01-01T03:41:16.756Z,3.90
2023-01-01T03:43:50.750Z,4.10
2023-01-01T03:46:26.006Z,3.70
2023-01-01T03:49:03.079Z,3.60
2023-01-01T03:51:45.346Z,3.83
2023-01-01T03:54:22.566Z,3.80
2023-01-01T03:56:58.309Z,3.57
2023-01-01T03:59:30.977Z,3.43
2023-01-01T04:02:05.048Z,3.60
2023-01-01T04:04:33.333Z,3.80
2023-01-01T04:07:14.265Z,3.90
2023-01-01T04:09:48.888Z,3.67
2023-01-01T04:12:18.163Z,3.80
2023-01-01T04:14:46.356Z,3.43
2023-01-01T04:17:15.647Z,3.43
2023-01-01T04:19:43.770Z,3.60
2023-01-01T04:22:11.810Z,3.30
2023-01-01T04:24:39.747Z,3.77
2023-01-01T04:27:07.698Z,3.13
2023-01-01T04:29:36.299Z,3.57
2023-01-01T04:32:04.480Z,3.50
2023-01-01T04:34:33.778Z,3.60
2023-01-01T04:37:01.697Z,3.60
2023-01-01T04:39:29.713Z,3.50
2023-01-01T04:41:57.645Z,3.47
2023-01-01T04:44:25.550Z,3.40
2023-01-01T04:46:58.438Z,3.90
2023-01-01T04:49:28.117Z,3.63
2023-01-01T04:51:57.606Z,3.40
2023-01-01T04:54:25.582Z,3.50
2023-01-01T04:56:53.661Z,3.90
2023-01-01T04:59:21.581Z,3.70
2023-01-01T05:01:49.808Z,3.13
2023-01-01T05:04:18.498Z,3.43
2023-01-01T05:06:46.886Z,3.60
2023-01-01T05:09:16.267Z,3.57
2023-01-01T05:11:44.150Z,3.40
2023-01-01T05:14:12.337Z,3.90
2023-01-01T05:16:41.329Z,4.07
2023-01-01T05:19:10.567Z,3.80
2023-01-01T05:21:40.486Z,3.43
2023-01-01T05:24:10.372Z,3.43
2023-01-01T05:26:43.681Z,3.10
2023-01-01T05:29:16.514Z,3.30
2023-01-01T05:31:46.054Z,3.60
2023-01-01T05:34:14.546Z,3.47
2023-01-01T05:36:42.509Z,3.43
2023-01-01T05:39:13.091Z,3.17
2023-01-01T05:41:43.115Z,3.27
2023-01-01T05:44:11.659Z,3.63
2023-01-01T05:46:39.804Z,3.13
2023-01-01T05:49:10.038Z,3.40
2023-01-01T05:54:05.215Z,3.70
2023-01-01T05:56:33.138Z,3.53
2023-01-01T05:59:03.934Z,3.43
2023-01-01T06:01:32.698Z,3.43
2023-01-01T06:04:01.248Z,3.30
2023-01-01T06:06:33.146Z,3.17
2023-01-01T06:09:02.737Z,3.40
2023-01-01T06:11:31.795Z,3.57
2023-01-01T06:14:01.176Z,3.60
2023-01-01T06:16:32.093Z,3.53
2023-01-01T06:19:00.254Z,3.53
2023-01-01T06:21:29.851Z,3.10
2023-01-01T06:23:58.930Z,3.70
2023-01-01T06:26:28.988Z,3.23
2023-01-01T06:28:57.638Z,3.00
2023-01-01T06:31:26.051Z,3.43
2023-01-01T06:33:55.501Z,3.00
2023-01-01T06:36:25.022Z,3.60
2023-01-01T06:38:56.358Z,3.10
2023-01-01T06:41:26.013Z,3.13
2023-01-01T06:43:55.525Z,2.97
2023-01-01T06:46:24.959Z,3.30
2023-01-01T06:48:56.893Z,3.30
2023-01-01T06:51:26.849Z,3.23
2023-01-01T06:53:55.143Z,3.70
2023-01-01T06:56:23.360Z,3.90
2023-01-01T06:58:51.449Z,3.60
2023-01-01T07:01:21.539Z,3.87
2023-01-01T07:03:54.511Z,3.57
2023-01-01T07:06:24.490Z,3.37
2023-01-01T07:08:52.411Z,3.60
2023-01-01T07:11:20.547Z,3.60
2023-01-01T07:13:48.569Z,3.20
2023-01-01T07:16:16.944Z,3.33
2023-01-01T07:18:45.548Z,3.17
2023-01-01T07:21:41.692Z,3.63
2023-01-01T07:24:12.440Z,3.10
2023-01-01T07:26:41.040Z,3.00
2023-01-01T07:29:09.384Z,3.30
2023-01-01T07:31:38.448Z,3.20
2023-01-01T07:34:07.062Z,2.90
2023-01-01T07:36:35.083Z,3.20
2023-01-01T07:39:04.363Z,2.77
2023-01-01T07:41:32.341Z,3.17
2023-01-01T07:44:00.499Z,3.10
2023-01-01T07:46:28.589Z,3.50
2023-01-01T07:48:57.045Z,3.10
2023-01-01T07:51:25.104Z,3.07
2023-01-01T07:53:53.024Z,3.03
2023-01-01T07:56:22.337Z,3.33
2023-01-01T07:58:50.249Z,3.43
2023-01-01T08:01:19.053Z,3.20
2023-01-01T08:03:51.944Z,3.60
2023-01-01T08:06:20.247Z,2.90
2023-01-01T08:08:48.160Z,2.80
2023-01-01T08:11:17.850Z,3.17
2023-01-01T08:13:47.097Z,2.53
2023-01-01T08:16:15.025Z,3.17
2023-01-01T08:18:43.008Z,2.80
2023-01-01T08:21:10.988Z,2.63
2023-01-01T08:23:38.871Z,2.67
2023-01-01T08:26:06.768Z,2.50
2023-01-01T08:28:34.699Z,2.60
2023-01-01T08:31:03.963Z,2.53
2023-01-01T08:33:32.056Z,2.57
2023-01-01T08:36:00.784Z,2.80
2023-01-01T08:38:28.737Z,2.60
2023-01-01T08:40:56.739Z,2.33
2023-01-01T08:43:25.781Z,2.47
2023-01-01T08:45:53.765Z,2.60
2023-01-01T08:48:28.738Z,2.53
2023-01-01T08:51:01.023Z,2.57
2023-01-01T08:53:29.866Z,2.87
2023-01-01T08:55:58.778Z,2.50
2023-01-01T08:58:27.212Z,3.07
2023-01-01T09:00:55.337Z,2.50
2023-01-01T09:03:24.774Z,3.00
2023-01-01T09:05:54.017Z,2.43
2023-01-01T09:08:22.969Z,2.73
2023-01-01T09:10:51.510Z,2.70
2023-01-01T09:13:21.430Z,2.83
2023-01-01T09:15:49.958Z,2.23
2023-01-01T09:18:17.924Z,2.57
2023-01-01T09:20:47.176Z,2.60
2023-01-01T09:23:15.445Z,2.40
2023-01-01T09:25:43.377Z,2.50
2023-01-01T09:28:13.949Z,2.70
2023-01-01T09:30:42.360Z,2.60
2023-01-01T09:33:10.399Z,2.97
2023-01-01T09:35:38.827Z,2.57
2023-01-01T09:38:08.136Z,2.17
2023-01-01T09:40:51.329Z,2.63
2023-01-01T09:43:27.912Z,2.67
2023-01-01T09:45:58.515Z,2.50
2023-01-01T09:48:29.373Z,3.20
2023-01-01T09:50:58.951Z,3.07
2023-01-01T09:53:35.909Z,2.70
2023-01-01T09:56:05.226Z,3.10
2023-01-01T09:58:35.133Z,2.80
2023-01-01T10:01:08.917Z,2.73
2023-01-01T10:03:46.203Z,2.90
2023-01-01T10:06:23.655Z,2.63
2023-01-01T10:09:10.987Z,2.70
2023-01-01T10:11:46.685Z,2.77
2023-01-01T10:14:22.016Z,2.93
2023-01-01T10:16:54.114Z,2.67
2023-01-01T10:19:31.547Z,2.73
2023-01-01T10:22:03.993Z,2.73
2023-01-01T10:24:43.811Z,2.53
2023-01-01T10:27:24.298Z,2.60
2023-01-01T10:29:58.026Z,2.63
2023-01-01T10:32:31.756Z,2.20
2023-01-01T10:35:00.410Z,3.60
2023-01-01T10:37:38.527Z,2.67
2023-01-01T10:40:16.006Z,2.43
2023-01-01T10:42:45.130Z,3.13
2023-01-01T10:45:16.084Z,2.60
2023-01-01T10:48:12.801Z,2.50
2023-01-01T10:50:44.202Z,2.53
2023-01-01T10:53:30.657Z,2.40
2023-01-01T10:56:06.418Z,2.30
2023-01-01T10:58:43.349Z,2.20
2023-01-01T11:01:13.661Z,2.80
2023-01-01T11:03:58.516Z,2.30
2023-01-01T11:06:28.189Z,2.77
2023-01-01T11:08:58.447Z,2.00
2023-01-01T11:11:33.597Z,2.67
2023-01-01T11:14:04.587Z,2.40
2023-01-01T11:16:33.464Z,2.40
2023-01-01T11:19:06.835Z,2.30
2023-01-01T11:21:35.895Z,2.83
2023-01-01T11:24:22.100Z,2.70
2023-01-01T11:26:55.158Z,2.80
2023-01-01T11:29:28.344Z,2.77
2023-01-01T11:31:57.553Z,2.63
2023-01-01T11:34:32.216Z,2.43
2023-01-01T11:37:12.778Z,2.60
2023-01-01T11:39:44.349Z,2.77
2023-01-01T11:42:19.305Z,2.57
2023-01-01T11:44:49.863Z,2.43
2023-01-01T11:47:25.201Z,2.47
2023-01-01T11:49:59.771Z,2.90
2023-01-01T11:52:30.648Z,2.40
2023-01-01T11:55:05.597Z,2.73
2023-01-01T11:57:36.028Z,2.57
2023-01-01T12:00:06.609Z,2.60
2023-01-01T12:02:52.007Z,2.57
2023-01-01T12:05:24.819Z,3.60
2023-01-01T12:07:53.382Z,2.60
2023-01-01T12:10:25.393Z,2.90
2023-01-01T12:13:01.627Z,2.47
2023-01-01T12:15:36.777Z,2.67
2023-01-01T12:18:12.217Z,2.23
2023-01-01T12:20:46.669Z,2.40
2023-01-01T12:23:18.095Z,3.03
2023-01-01T12:25:53.445Z,2.50
2023-01-01T12:28:32.193Z,2.70
2023-01-01T12:31:05.927Z,3.47
2023-01-01T12:33:51.374Z,3.40
2023-01-01T12:36:33.801Z,3.13
2023-01-01T12:39:54.562Z,2.60
2023-01-01T12:42:35.356Z,2.50
2023-01-01T12:45:31.228Z,3.13
2023-01-01T12:48:08.207Z,2.90
2023-01-01T12:50:53.587Z,2.93
2023-01-01T12:53:32.129Z,3.27
2023-01-01T12:56:09.848Z,2.90
2023-01-01T12:58:41.778Z,2.90
2023-01-01T13:01:16.150Z,2.90
2023-01-01T13:03:50.653Z,2.83
2023-01-01T13:06:28.319Z,3.20
2023-01-01T13:09:03.348Z,3.00
2023-01-01T13:11:31.555Z,3.20
2023-01-01T13:14:21.643Z,3.30
2023-01-01T13:16:54.044Z,2.93
2023-01-01T13:19:36.290Z,3.10
2023-01-01T13:22:39.613Z,3.70
2023-01-01T13:25:21.763Z,3.13
2023-01-01T13:28:14.130Z,3.57
2023-01-01T13:30:49.623Z,2.60
2023-01-01T13:33:26.564Z,3.10
2023-01-01T13:36:40.818Z,3.53
2023-01-01T13:39:09.384Z,3.90
2023-01-01T13:41:50.506Z,3.47
2023-01-01T13:44:20.747Z,2.70
2023-01-01T13:47:11.591Z,2.80
2023-01-01T13:50:03.206Z,3.23
2023-01-01T13:53:00.029Z,3.10
2023-01-01T13:55:58.119Z,4.50
2023-01-01T13:58:43.981Z,9.00
2023-01-01T14:01:53.700Z,7.43
2023-01-01T14:04:38.443Z,4.00
2023-01-01T14:07:49.607Z,3.30
2023-01-01T14:10:27.841Z,4.47
2023-01-01T14:13:03.034Z,3.20
2023-01-01T14:15:33.521Z,3.13
2023-01-01T14:18:03.772Z,3.53
2023-01-01T14:20:35.640Z,2.93
2023-01-01T14:23:10.061Z,3.13
2023-01-01T14:25:38.645Z,3.10
2023-01-01T14:28:07.931Z,3.40
2023-01-01T14:30:35.947Z,3.40
2023-01-01T14:33:04.275Z,3.53
2023-01-01T14:35:32.263Z,3.00
2023-01-01T14:38:23.902Z,3.27
2023-01-01T14:41:01.396Z,3.03
2023-01-01T14:43:29.519Z,3.00
2023-01-01T14:45:57.585Z,3.60
2023-01-01T14:48:26.068Z,3.27
2023-01-01T14:50:55.845Z,3.70
2023-01-01T14:53:31.660Z,3.40
2023-01-01T14:55:59.832Z,3.37
2023-01-01T14:58:30.219Z,3.47
2023-01-01T15:01:16.761Z,3.20
2023-01-01T15:04:00.203Z,3.50
2023-01-01T15:06:29.286Z,3.60
2023-01-01T15:08:58.803Z,3.30
2023-01-01T15:11:29.315Z,3.20
2023-01-01T15:14:00.137Z,2.97
2023-01-01T15:16:31.093Z,3.33
2023-01-01T15:19:17.807Z,3.60
2023-01-01T15:21:49.641Z,3.10
2023-01-01T15:24:22.165Z,3.50
2023-01-01T15:26:58.157Z,3.37
2023-01-01T15:29:30.829Z,3.97
2023-01-01T15:32:01.831Z,3.87
2023-01-01T15:34:32.964Z,3.90
2023-01-01T15:37:11.555Z,3.93
2023-01-01T15:39:49.633Z,4.33
2023-01-01T15:42:32.252Z,3.80
2023-01-01T15:45:16.465Z,4.43
2023-01-01T15:47:45.818Z,4.10
2023-01-01T15:50:22.284Z,4.30
2023-01-01T15:52:55.640Z,4.07
2023-01-01T15:55:29.004Z,4.77
2023-01-01T15:57:57.459Z,4.40
2023-01-01T16:00:28.358Z,4.37
2023-01-01T16:03:01.918Z,3.57
2023-01-01T16:05:30.696Z,4.00
2023-01-01T16:08:01.189Z,4.43
2023-01-01T16:10:31.785Z,3.97
2023-01-01T16:13:00.132Z,4.00
2023-01-01T16:15:28.303Z,4.27
2023-01-01T16:17:56.688Z,4.23
2023-01-01T16:20:25.505Z,4.47
2023-01-01T16:22:53.431Z,4.63
2023-01-01T16:25:23.186Z,3.83
2023-01-01T16:27:52.519Z,4.40
2023-01-01T16:30:20.460Z,4.70
2023-01-01T16:32:49.048Z,4.57
2023-01-01T16:35:17.497Z,4.57
2023-01-01T16:37:45.485Z,5.53
2023-01-01T16:40:13.733Z,9.37
2023-01-01T16:42:41.721Z,6.77
2023-01-01T16:45:16.834Z,5.60
2023-01-01T16:47:45.395Z,5.17
2023-01-01T16:50:13.759Z,4.73
2023-01-01T16:52:46.517Z,5.50
2023-01-01T16:55:14.925Z,5.33
2023-01-01T16:57:43.527Z,5.27
2023-01-01T17:00:14.349Z,5.00
2023-01-01T17:02:42.887Z,4.70
2023-01-01T17:05:12.020Z,4.70
2023-01-01T17:07:40.017Z,4.83
2023-01-01T17:10:08.979Z,4.50
2023-01-01T17:12:37.583Z,4.83
2023-01-01T17:15:06.445Z,4.90
2023-01-01T17:17:35.720Z,5.27
2023-01-01T17:20:03.864Z,5.37
2023-01-01T17:22:34.426Z,4.67
2023-01-01T17:25:03.210Z,4.97
2023-01-01T17:27:31.180Z,5.23
2023-01-01T17:29:59.223Z,4.80
2023-01-01T17:32:27.158Z,4.90
2023-01-01T17:34:56.456Z,5.20
2023-01-01T17:37:24.571Z,5.53
2023-01-01T17:39:52.678Z,4.80
2023-01-01T17:42:20.838Z,5.17
2023-01-01T17:44:48.727Z,5.00
2023-01-01T17:47:16.783Z,5.20
2023-01-01T17:49:44.833Z,5.23
2023-01-01T17:52:14.054Z,5.50
2023-01-01T17:54:42.195Z,5.57
2023-01-01T17:57:10.398Z,5.57
2023-01-01T17:59:38.395Z,5.20
2023-01-01T18:02:08.955Z,5.03
2023-01-01T18:04:37.343Z,5.00
2023-01-01T18:07:06.573Z,5.77
2023-01-01T18:09:38.124Z,5.23
2023-01-01T18:12:07.453Z,5.30
2023-01-01T18:14:35.573Z,5.13
2023-01-01T18:17:03.606Z,5.30
2023-01-01T18:19:32.540Z,5.00
2023-01-01T18:22:05.134Z,5.50
2023-01-01T18:24:33.233Z,5.07
2023-01-01T18:27:02.707Z,5.63
2023-01-01T18:29:30.715Z,5.17
2023-01-01T18:31:58.831Z,5.80
2023-01-01T18:34:28.379Z,5.70
2023-01-01T18:36:57.478Z,5.23
2023-01-01T18:39:29.759Z,5.37
2023-01-01T18:42:11.286Z,5.57
2023-01-01T18:44:39.405Z,5.27
2023-01-01T18:47:15.031Z,5.33
2023-01-01T18:49:48.745Z,5.90
2023-01-01T18:52:22.427Z,5.87
2023-01-01T18:54:57.889Z,5.30
2023-01-01T18:57:29.693Z,6.10
2023-01-01T19:00:00.409Z,5.37
2023-01-01T19:02:38.742Z,6.27
2023-01-01T19:05:25.826Z,6.53
2023-01-01T19:08:12.942Z,6.80
2023-01-01T19:10:44.376Z,6.67
2023-01-01T19:13:23.376Z,6.20
2023-01-01T19:15:53.992Z,5.80
2023-01-01T19:18:23.646Z,5.90
2023-01-01T19:20:59.386Z,5.70
2023-01-01T19:23:27.376Z,5.27
2023-01-01T19:25:58.333Z,5.17
2023-01-01T19:28:34.806Z,5.60
2023-01-01T19:31:04.254Z,5.80
2023-01-01T19:33:32.943Z,5.53
2023-01-01T19:36:01.119Z,5.63
2023-01-01T19:38:29.283Z,6.07
2023-01-01T19:40:57.294Z,5.90
2023-01-01T19:43:25.491Z,5.53
2023-01-01T19:45:55.194Z,6.07
2023-01-01T19:48:23.256Z,5.63
2023-01-01T19:50:51.228Z,5.47
2023-01-01T19:53:19.508Z,5.83
2023-01-01T19:55:47.468Z,5.53
2023-01-01T19:58:15.623Z,6.27
2023-01-01T20:00:43.799Z,5.90
2023-01-01T20:06:02.157Z,5.80
2023-01-01T20:08:31.192Z,5.60
2023-01-01T20:10:59.691Z,5.97
2023-01-01T20:13:27.952Z,5.80
2023-01-01T20:15:56.236Z,5.57
2023-01-01T20:18:26.082Z,5.60
2023-01-01T20:21:11.656Z,6.03
2023-01-01T20:23:39.719Z,6.33
2023-01-01T20:26:07.807Z,6.13
2023-01-01T20:28:53.696Z,5.90
2023-01-01T20:31:21.876Z,6.47
2023-01-01T20:33:51.278Z,6.63
2023-01-01T20:36:33.446Z,6.30
2023-01-01T20:39:01.549Z,6.50
2023-01-01T20:41:29.497Z,6.33
2023-01-01T20:43:59.720Z,6.57
2023-01-01T20:46:29.579Z,6.87
2023-01-01T20:48:59.591Z,6.50
2023-01-01T20:51:27.880Z,6.57
2023-01-01T20:53:55.916Z,6.57
2023-01-01T20:56:23.981Z,7.40
2023-01-01T20:58:57.596Z,6.40
2023-01-01T21:01:27.684Z,7.60
2023-01-01T21:03:55.706Z,7.07
2023-01-01T21:06:25.138Z,7.97
2023-01-01T21:08:53.481Z,6.93
2023-01-01T21:11:21.676Z,7.57
2023-01-01T21:13:50.569Z,7.27
2023-01-01T21:16:20.502Z,7.27
2023-01-01T21:18:49.744Z,7.23
2023-01-01T21:21:20.316Z,7.57
2023-01-01T21:23:51.829Z,7.00
2023-01-01T21:26:25.810Z,8.03
2023-01-01T21:28:54.305Z,7.37
2023-01-01T21:31:23.050Z,7.53
2023-01-01T21:33:51.017Z,7.13
2023-01-01T21:36:22.174Z,7.17
2023-01-01T21:38:53.274Z,7.50
2023-01-01T21:41:23.716Z,7.60
2023-01-01T21:43:55.292Z,8.00
2023-01-01T21:46:33.638Z,7.77
2023-01-01T21:49:07.418Z,7.23
2023-01-01T21:51:40.952Z,8.07
2023-01-01T21:54:22.054Z,7.43
2023-01-01T21:56:58.341Z,8.00
2023-01-01T21:59:37.811Z,7.70
2023-01-01T22:02:35.311Z,7.90
2023-01-01T22:05:30.191Z,7.97
2023-01-01T22:07:59.443Z,8.13
2023-01-01T22:10:33.773Z,8.37
2023-01-01T22:13:02.088Z,8.67
2023-01-01T22:15:41.212Z,8.43
2023-01-01T22:18:24.640Z,8.50
2023-01-01T22:20:52.838Z,8.70
2023-01-01T22:23:33.041Z,9.27
2023-01-01T22:26:05.415Z,8.33
2023-01-01T22:28:42.835Z,8.70
2023-01-01T22:31:14.085Z,8.50
2023-01-01T22:33:45.985Z,9.10
2023-01-01T22:36:18.669Z,9.87
2023-01-01T22:38:46.862Z,9.10
2023-01-01T22:41:16.601Z,9.87
2023-01-01T22:43:46.753Z,10.33
2023-01-01T22:46:20.605Z,9.53
2023-01-01T22:48:54.241Z,9.47
2023-01-01T22:51:29.529Z,9.67
2023-01-01T22:53:57.485Z,9.27
2023-01-01T22:56:26.850Z,9.17
2023-01-01T22:58:57.237Z,8.67
2023-01-01T23:01:25.775Z,8.90
2023-01-01T23:03:53.850Z,8.40
2023-01-01T23:06:22.789Z,9.20
2023-01-01T23:08:51.202Z,9.00
2023-01-01T23:11:19.410Z,9.20
2023-01-01T23:14:10.837Z,9.57
2023-01-01T23:16:38.908Z,8.53
2023-01-01T23:19:07.404Z,8.80
2023-01-01T23:21:36.894Z,7.80
2023-01-01T23:24:09.548Z,7.90
2023-01-01T23:26:38.651Z,8.50
2023-01-01T23:29:09.187Z,8.27
2023-01-01T23:31:39.332Z,9.10
2023-01-01T23:34:08.021Z,8.20
2023-01-01T23:36:36.661Z,8.57
2023-01-01T23:39:04.725Z,8.60
2023-01-01T23:41:33.040Z,8.63
2023-01-01T23:44:00.930Z,8.90
2023-01-01T23:46:30.318Z,8.17
2023-01-01T23:48:58.304Z,8.30
2023-01-01T23:51:26.240Z,8.37
2023-01-01T23:53:54.181Z,8.17
2023-01-01T23:56:22.811Z,8.67
2023-01-01T23:58:50.743Z,8.10
